Time;durP1;ratioP1;P1;durP2;ratioP2;P2;SDS_P1;SDS_P2;PMS_P1;PMS_P2;Temp;Humidity;BMP_temperature;BMP_pressure;BME280_temperature;BME280_humidity;BME280_pressure;Samples;Min_cycle;Max_cycle;Signal;HPM_P1;HPM_P2
2022/08/03 00:00:53;;;;;;;1.40;1.17;;;;;25.80;100481.00;;;;2079413;28;20216;-52
2022/08/03 00:01:53;;;;;;;1.40;1.30;;;;;25.80;100483.00;;;;2079050;28;20320;-53
2022/08/03 00:02:53;;;;;;;1.40;1.30;;;;;25.80;100481.00;;;;2079250;28;20217;-53
2022/08/03 00:03:54;;;;;;;1.40;1.30;;;;;25.80;100476.00;;;;2079285;28;20217;-52
2022/08/03 00:04:54;;;;;;;1.47;1.30;;;;;25.80;100484.00;;;;2079459;28;20244;-52
2022/08/03 00:05:54;;;;;;;1.27;1.17;;;;;25.80;100479.00;;;;2079223;28;20575;-52
2022/08/03 00:06:55;;;;;;;1.23;1.10;;;;;25.80;100482.00;;;;2079356;28;20585;-52
2022/08/03 00:07:55;;;;;;;1.23;1.13;;;;;25.80;100480.00;;;;2078545;28;20225;-52
2022/08/03 00:08:56;;;;;;;1.40;1.30;;;;;25.80;100483.00;;;;2079130;28;20239;-53
2022/08/03 00:09:56;;;;;;;1.00;0.90;;;;;25.80;100486.00;;;;2079242;28;20213;-52
2022/08/03 00:10:56;;;;;;;1.30;1.10;;;;;25.80;100482.00;;;;2079391;28;20209;-53
2022/08/03 00:11:56;;;;;;;0.90;0.80;;;;;25.80;100479.00;;;;2079118;28;20205;-52
2022/08/03 00:12:57;;;;;;;1.30;1.20;;;;;25.80;100480.00;;;;2078881;28;20214;-57
2022/08/03 00:13:57;;;;;;;1.30;1.10;;;;;25.80;100476.00;;;;2082681;28;20267;-54
2022/08/03 00:14:57;;;;;;;1.23;1.07;;;;;25.80;100479.00;;;;2087365;28;20209;-54
2022/08/03 00:15:58;;;;;;;1.20;1.10;;;;;25.80;100474.00;;;;2087535;28;20255;-54
2022/08/03 00:16:58;;;;;;;1.20;1.10;;;;;25.80;100443.00;;;;2087647;28;20394;-53
2022/08/03 00:17:59;;;;;;;1.37;1.27;;;;;25.80;100472.00;;;;2085827;28;20572;-53
2022/08/03 00:18:59;;;;;;;1.80;1.37;;;;;25.80;100471.00;;;;2086656;28;20560;-53
2022/08/03 00:20:00;;;;;;;1.53;1.27;;;;;25.80;100469.00;;;;2087473;28;20213;-52
2022/08/03 00:21:00;;;;;;;1.30;1.20;;;;;25.80;100473.00;;;;2087520;28;20447;-52
2022/08/03 00:22:01;;;;;;;1.50;1.40;;;;;25.80;100469.00;;;;2087322;28;20209;-52
2022/08/03 00:23:01;;;;;;;1.30;1.20;;;;;25.80;100473.00;;;;2087293;28;20216;-53
2022/08/03 00:24:01;;;;;;;1.10;0.90;;;;;25.80;100470.00;;;;2086940;28;20205;-53
2022/08/03 00:25:02;;;;;;;1.57;1.30;;;;;25.80;100467.00;;;;2087309;28;20212;-55
2022/08/03 00:26:02;;;;;;;1.10;1.00;;;;;25.80;100471.00;;;;2084453;28;20209;-53
2022/08/03 00:27:03;;;;;;;1.50;1.40;;;;;25.80;100473.00;;;;2079121;28;20213;-53
2022/08/03 00:28:03;;;;;;;1.50;1.40;;;;;25.80;100461.00;;;;2078342;28;20674;-53
2022/08/03 00:29:04;;;;;;;1.77;1.27;;;;;25.80;100473.00;;;;2078884;28;20244;-52
2022/08/03 00:30:05;;;;;;;1.73;1.37;;;;;25.80;100465.00;;;;2079293;28;20213;-53
2022/08/03 00:31:05;;;;;;;1.50;1.35;;;;;25.80;100466.00;;;;2079151;28;20308;-53
2022/08/03 00:32:06;;;;;;;1.67;1.57;;;;;25.80;100466.00;;;;2079031;28;20570;-53
2022/08/03 00:33:09;;;;;;;1.10;1.00;;;;;25.80;100459.00;;;;2078887;28;20240;-53
2022/08/03 00:34:09;;;;;;;1.10;1.00;;;;;25.80;100466.00;;;;2078877;28;20224;-52
2022/08/03 00:35:10;;;;;;;1.40;1.30;;;;;25.80;100459.00;;;;2079089;28;21445;-53
2022/08/03 00:36:11;;;;;;;1.40;1.30;;;;;25.80;100470.00;;;;2079287;28;20345;-53
2022/08/03 00:37:11;;;;;;;1.00;0.90;;;;;25.80;100463.00;;;;2078547;28;20944;-53
2022/08/03 00:38:11;;;;;;;1.47;1.37;;;;;25.80;100461.00;;;;2077285;28;20719;-53
2022/08/03 00:39:12;;;;;;;1.50;1.23;;;;;25.80;100463.00;;;;2079072;28;20205;-53
2022/08/03 00:40:13;;;;;;;1.27;1.13;;;;;25.80;100462.00;;;;2078811;28;20225;-52
2022/08/03 00:41:13;;;;;;;1.20;1.10;;;;;25.80;100468.00;;;;2079118;28;20271;-53
2022/08/03 00:42:13;;;;;;;1.60;1.10;;;;;25.80;100464.00;;;;2079055;28;20575;-53
2022/08/03 00:43:14;;;;;;;1.33;1.07;;;;;25.80;100459.00;;;;2078905;28;20320;-53
2022/08/03 00:44:14;;;;;;;1.40;1.30;;;;;25.80;100455.00;;;;2079014;28;20214;-53
2022/08/03 00:45:19;;;;;;;1.37;1.27;;;;;25.80;100462.00;;;;2079002;28;20803;-53
2022/08/03 00:46:21;;;;;;;1.57;1.47;;;;;25.80;100466.00;;;;2078269;28;20210;-53
2022/08/03 00:47:21;;;;;;;1.27;1.17;;;;;25.80;100455.00;;;;2077804;28;20456;-52
2022/08/03 00:48:21;;;;;;;1.33;1.23;;;;;25.80;100462.00;;;;2079120;28;20431;-53
2022/08/03 00:49:22;;;;;;;1.10;1.00;;;;;25.80;100465.00;;;;2079048;28;20221;-53
2022/08/03 00:50:23;;;;;;;1.90;1.50;;;;;25.80;100460.00;;;;2078602;28;20271;-53
2022/08/03 00:51:24;;;;;;;1.83;1.63;;;;;25.80;100465.00;;;;2078286;28;20220;-53
2022/08/03 00:52:24;;;;;;;1.63;1.40;;;;;25.80;100476.00;;;;2082319;28;20455;-53
2022/08/03 00:53:24;;;;;;;1.10;1.00;;;;;25.80;100429.00;;;;2079011;28;20304;-53
2022/08/03 00:54:25;;;;;;;1.37;1.20;;;;;25.80;100451.00;;;;2078298;28;20213;-53
2022/08/03 00:55:25;;;;;;;1.50;1.30;;;;;25.80;100458.00;;;;2078203;28;20210;-53
2022/08/03 00:56:25;;;;;;;1.43;1.33;;;;;25.80;100455.00;;;;2078149;28;20552;-53
2022/08/03 00:57:26;;;;;;;1.20;1.10;;;;;25.80;100450.00;;;;2076474;28;20278;-53
2022/08/03 00:58:26;;;;;;;1.23;1.13;;;;;25.80;100465.00;;;;2078301;28;20217;-53
2022/08/03 00:59:28;;;;;;;1.60;1.33;;;;;25.80;100457.00;;;;2078445;28;20243;-53
2022/08/03 01:00:28;;;;;;;1.40;1.30;;;;;25.80;100457.00;;;;2078239;28;20360;-53
2022/08/03 01:01:28;;;;;;;1.67;1.47;;;;;25.80;100455.00;;;;2079051;28;20558;-53
2022/08/03 01:02:29;;;;;;;1.60;1.50;;;;;25.80;100448.00;;;;2078639;28;20291;-53
2022/08/03 01:03:29;;;;;;;1.53;1.43;;;;;25.10;100455.00;;;;2078791;28;20244;-53
2022/08/03 01:04:29;;;;;;;1.30;1.20;;;;;25.80;100452.00;;;;2078857;28;20217;-53
2022/08/03 01:05:32;;;;;;;1.40;1.30;;;;;25.70;100420.00;;;;2078315;28;20217;-53
2022/08/03 01:06:51;;;;;;;1.10;1.00;;;;;25.70;100449.00;;;;2076733;28;20360;-53
2022/08/03 01:08:18;;;;;;;1.50;1.30;;;;;25.80;100452.00;;;;2071486;28;20499;-53
2022/08/03 01:09:22;;;;;;;1.33;1.23;;;;;25.80;100448.00;;;;2059294;28;20691;-53
2022/08/03 01:10:44;;;;;;;1.53;1.40;;;;;25.80;100453.00;;;;2055597;28;20458;-53
2022/08/03 01:12:06;;;;;;;1.43;1.33;;;;;25.70;100446.00;;;;2070106;28;20465;-53
2022/08/03 01:13:15;;;;;;;1.23;1.10;;;;;25.70;100445.00;;;;2070369;28;20449;-52
2022/08/03 01:14:37;;;;;;;1.40;1.30;;;;;25.80;100449.00;;;;2070823;28;20449;-53
2022/08/03 01:15:42;;;;;;;1.43;1.27;;;;;25.80;100452.00;;;;2072518;28;20582;-53
2022/08/03 01:16:45;;;;;;;1.40;1.30;;;;;25.70;100448.00;;;;2077699;28;20990;-53
2022/08/03 01:17:54;;;;;;;1.23;1.13;;;;;25.80;100456.00;;;;2076331;28;20835;-53
2022/08/03 01:18:59;;;;;;;1.43;1.30;;;;;25.80;100429.00;;;;2069940;28;21003;-53
2022/08/03 01:20:07;;;;;;;2.03;1.53;;;;;25.70;100419.00;;;;2063394;28;20544;-53
2022/08/03 01:21:13;;;;;;;1.40;1.27;;;;;25.80;100447.00;;;;2070695;28;20563;-53
2022/08/03 01:22:17;;;;;;;1.40;1.17;;;;;25.70;100444.00;;;;2063428;28;20454;-52
2022/08/03 01:23:27;;;;;;;1.20;1.10;;;;;25.80;100450.00;;;;2062751;28;20450;-53
2022/08/03 01:24:38;;;;;;;1.60;1.50;;;;;25.80;100457.00;;;;2075670;28;20294;-53
2022/08/03 01:26:06;;;;;;;1.57;1.30;;;;;25.80;100447.00;;;;2077302;28;20498;-53
2022/08/03 01:27:35;;;;;;;1.47;1.20;;;;;25.70;100441.00;;;;2078049;28;20515;-53
2022/08/03 01:28:48;;;;;;;1.80;1.40;;;;;25.70;100446.00;;;;2077991;28;20468;-53
2022/08/03 01:30:11;;;;;;;1.30;1.20;;;;;25.80;100476.00;;;;2078631;28;20849;-53
2022/08/03 01:31:11;;;;;;;1.30;1.20;;;;;25.80;100449.00;;;;2077761;28;21030;-53
2022/08/03 01:32:14;;;;;;;1.60;1.40;;;;;25.80;100413.00;;;;2072605;28;20456;-53
2022/08/03 01:33:20;;;;;;;1.37;1.27;;;;;25.70;100441.00;;;;2061916;28;20226;-53
2022/08/03 01:34:22;;;;;;;1.40;1.10;;;;;25.70;100413.00;;;;2070895;28;20499;-53
2022/08/03 01:35:30;;;;;;;2.17;1.40;;;;;25.70;100413.00;;;;2069925;28;20470;-53
2022/08/03 01:36:39;;;;;;;1.63;1.53;;;;;25.70;100449.00;;;;2063932;28;20222;-53
2022/08/03 01:38:01;;;;;;;1.23;1.13;;;;;25.70;100436.00;;;;2069603;28;20449;-52
2022/08/03 01:39:08;;;;;;;1.20;1.10;;;;;25.70;100443.00;;;;2072722;28;20463;-53
2022/08/03 01:40:08;;;;;;;1.70;1.43;;;;;25.70;100440.00;;;;2069808;28;20457;-53
2022/08/03 01:41:14;;;;;;;1.37;1.13;;;;;25.70;100444.00;;;;2077828;28;20476;-53
2022/08/03 01:42:14;;;;;;;1.30;1.20;;;;;25.70;100443.00;;;;2070040;28;21053;-53
2022/08/03 01:43:16;;;;;;;1.30;1.20;;;;;25.80;100411.00;;;;2061921;28;20505;-53
2022/08/03 01:44:16;;;;;;;1.57;1.20;;;;;25.70;100435.00;;;;2061895;28;20701;-53
2022/08/03 01:45:17;;;;;;;1.53;1.30;;;;;25.70;100438.00;;;;2069931;28;20492;-53
2022/08/03 01:46:19;;;;;;;1.10;0.97;;;;;25.70;100444.00;;;;2061638;28;20776;-53
2022/08/03 01:47:20;;;;;;;1.73;1.13;;;;;25.70;100438.00;;;;2068939;28;21228;-53
2022/08/03 01:48:20;;;;;;;1.40;1.30;;;;;25.70;100444.00;;;;2077356;28;20452;-53
2022/08/03 01:49:20;;;;;;;1.30;1.20;;;;;25.70;100430.00;;;;2061087;28;20222;-53
2022/08/03 01:50:26;;;;;;;1.40;1.13;;;;;25.70;100429.00;;;;2061015;28;20202;-53
2022/08/03 01:51:27;;;;;;;1.67;1.23;;;;;25.70;100436.00;;;;2054919;28;20255;-53
2022/08/03 01:52:27;;;;;;;1.47;1.33;;;;;25.70;100440.00;;;;2053501;28;21298;-53
2022/08/03 01:53:27;;;;;;;1.43;1.27;;;;;25.70;100410.00;;;;2059775;28;20747;-53
2022/08/03 01:54:28;;;;;;;1.40;1.30;;;;;25.70;100448.00;;;;2069200;28;20319;-53
2022/08/03 01:55:28;;;;;;;1.50;1.40;;;;;25.70;100436.00;;;;2077432;28;20263;-53
2022/08/03 01:56:28;;;;;;;1.40;1.23;;;;;25.70;100437.00;;;;2078617;28;20252;-53
2022/08/03 01:57:29;;;;;;;1.27;1.10;;;;;25.70;100426.00;;;;2075837;28;20752;-53
2022/08/03 01:58:29;;;;;;;1.50;1.37;;;;;25.70;100444.00;;;;2062576;28;20219;-53
2022/08/03 01:59:29;;;;;;;1.13;1.00;;;;;25.70;100437.00;;;;2079417;28;20241;-53
2022/08/03 02:00:30;;;;;;;1.57;1.43;;;;;25.70;100398.00;;;;2087262;28;20220;-53
2022/08/03 02:01:31;;;;;;;1.30;1.10;;;;;25.70;100432.00;;;;2086764;28;20224;-54
2022/08/03 02:02:31;;;;;;;1.37;1.27;;;;;25.70;100439.00;;;;2078559;28;20866;-53
2022/08/03 02:03:33;;;;;;;1.83;1.27;;;;;25.70;100428.00;;;;2074269;28;20222;-53
2022/08/03 02:04:33;;;;;;;1.17;1.07;;;;;25.70;100433.00;;;;2070715;28;20218;-53
2022/08/03 02:05:34;;;;;;;1.70;1.57;;;;;25.70;100398.00;;;;2062624;28;20484;-53
2022/08/03 02:06:34;;;;;;;1.10;1.00;;;;;25.70;100425.00;;;;2078332;28;20229;-53
2022/08/03 02:07:35;;;;;;;1.80;1.40;;;;;25.70;100435.00;;;;2070240;28;20220;-53
2022/08/03 02:08:35;;;;;;;1.27;1.07;;;;;25.70;100423.00;;;;2068750;28;20224;-53
2022/08/03 02:09:39;;;;;;;1.50;1.20;;;;;25.70;100432.00;;;;2071337;28;20301;-53
2022/08/03 02:10:40;;;;;;;1.57;1.47;;;;;25.70;100420.00;;;;2087463;28;20689;-54
2022/08/03 02:11:40;;;;;;;1.47;1.37;;;;;25.70;100429.00;;;;2087598;28;20963;-53
2022/08/03 02:12:42;;;;;;;1.40;1.30;;;;;25.70;100402.00;;;;2080628;28;20521;-53
2022/08/03 02:13:42;;;;;;;1.90;1.60;;;;;25.70;100430.00;;;;2087601;28;20220;-53
2022/08/03 02:14:43;;;;;;;1.40;1.30;;;;;25.70;100428.00;;;;2087444;28;20455;-53
2022/08/03 02:15:43;;;;;;;1.30;1.20;;;;;25.70;100430.00;;;;2079026;28;20221;-53
2022/08/03 02:16:44;;;;;;;1.30;1.20;;;;;25.70;100422.00;;;;2070465;28;20941;-53
2022/08/03 02:17:45;;;;;;;1.40;1.03;;;;;25.70;100431.00;;;;2069822;28;20226;-52
2022/08/03 02:18:45;;;;;;;1.30;1.20;;;;;25.70;100431.00;;;;2061249;28;20210;-59
2022/08/03 02:19:46;;;;;;;1.37;1.27;;;;;25.70;100435.00;;;;2062608;28;20222;-57
2022/08/03 02:20:46;;;;;;;1.70;1.30;;;;;25.70;100434.00;;;;2078468;28;20253;-56
2022/08/03 02:21:46;;;;;;;1.30;1.20;;;;;25.70;100437.00;;;;2077713;28;20217;-54
2022/08/03 02:22:47;;;;;;;1.40;1.23;;;;;25.70;100435.00;;;;2062714;28;20683;-53
2022/08/03 02:23:47;;;;;;;1.50;1.40;;;;;25.70;100433.00;;;;2070595;28;20225;-54
2022/08/03 02:24:47;;;;;;;1.43;1.17;;;;;25.70;100436.00;;;;2075824;28;20218;-54
2022/08/03 02:25:51;;;;;;;1.30;1.20;;;;;25.70;100436.00;;;;2070489;28;20288;-55
2022/08/03 02:26:52;;;;;;;1.20;1.10;;;;;25.70;100433.00;;;;2082390;28;20292;-53
2022/08/03 02:27:57;;;;;;;1.30;1.20;;;;;25.70;100399.00;;;;2069750;28;20476;-53
2022/08/03 02:29:05;;;;;;;1.50;1.40;;;;;25.70;100439.00;;;;2063504;28;20472;-53
2022/08/03 02:30:07;;;;;;;1.57;1.40;;;;;25.70;100433.00;;;;2070906;28;20452;-52
2022/08/03 02:31:11;;;;;;;1.40;1.30;;;;;25.70;100431.00;;;;2079075;28;21195;-53
2022/08/03 02:32:13;;;;;;;1.20;1.10;;;;;25.70;100422.00;;;;2071692;28;20261;-53
2022/08/03 02:33:17;;;;;;;1.50;1.40;;;;;25.70;100431.00;;;;2078766;28;20464;-53
2022/08/03 02:34:17;;;;;;;1.30;1.20;;;;;25.70;100428.00;;;;2085103;28;20454;-53
2022/08/03 02:35:18;;;;;;;1.47;1.37;;;;;25.70;100428.00;;;;2087076;28;20737;-53
2022/08/03 02:36:19;;;;;;;1.50;1.40;;;;;25.70;100442.00;;;;2086876;28;20215;-57
2022/08/03 02:37:19;;;;;;;1.60;1.50;;;;;25.70;100385.00;;;;2076620;28;20213;-53
2022/08/03 02:38:20;;;;;;;1.40;1.30;;;;;25.70;100438.00;;;;2060470;28;20445;-53
2022/08/03 02:39:20;;;;;;;2.37;1.30;;;;;25.70;100427.00;;;;2070430;28;20292;-53
2022/08/03 02:40:21;;;;;;;1.60;1.47;;;;;25.70;100430.00;;;;2069634;28;20225;-52
2022/08/03 02:41:24;;;;;;;1.20;1.10;;;;;25.70;100431.00;;;;2075811;28;20264;-53
2022/08/03 02:42:24;;;;;;;1.15;1.00;;;;;25.30;100417.00;;;;2087078;28;20787;-53
2022/08/03 02:43:24;;;;;;;1.30;1.20;;;;;25.70;100433.00;;;;2078847;28;20244;-52
2022/08/03 02:44:25;;;;;;;1.43;1.20;;;;;25.70;100367.00;;;;2070657;28;20307;-53
2022/08/03 02:45:25;;;;;;;1.73;1.10;;;;;25.70;100428.00;;;;2074676;28;20214;-54
2022/08/03 02:46:29;;;;;;;1.33;1.00;;;;;25.70;100436.00;;;;2070335;28;20214;-53
2022/08/03 02:47:29;;;;;;;1.90;1.60;;;;;25.70;100420.00;;;;2070297;28;20301;-53
2022/08/03 02:48:29;;;;;;;1.43;1.30;;;;;25.70;100426.00;;;;2070262;28;21013;-53
2022/08/03 02:49:30;;;;;;;1.10;1.00;;;;;25.70;100386.00;;;;2080307;28;20823;-54
2022/08/03 02:50:30;;;;;;;2.40;1.30;;;;;25.70;100418.00;;;;2086624;28;20213;-53
2022/08/03 02:51:32;;;;;;;1.47;1.33;;;;;25.70;100422.00;;;;2086757;28;20244;-53
2022/08/03 02:52:32;;;;;;;1.30;1.20;;;;;25.70;100427.00;;;;2082235;28;20209;-53
2022/08/03 02:53:33;;;;;;;1.60;1.37;;;;;25.70;100424.00;;;;2070378;28;20544;-53
2022/08/03 02:54:33;;;;;;;1.30;1.20;;;;;25.70;100398.00;;;;2077076;28;20201;-53
2022/08/03 02:55:33;;;;;;;1.47;1.37;;;;;25.70;100421.00;;;;2070971;28;20250;-53
2022/08/03 02:56:34;;;;;;;1.60;1.50;;;;;25.70;100422.00;;;;2054987;28;20371;-53
2022/08/03 02:57:34;;;;;;;1.60;1.50;;;;;25.70;100438.00;;;;2075798;28;20937;-52
2022/08/03 02:58:35;;;;;;;1.80;1.33;;;;;25.70;100427.00;;;;2078891;28;20721;-52
2022/08/03 02:59:35;;;;;;;1.77;1.30;;;;;25.70;100430.00;;;;2078085;28;20209;-52
2022/08/03 03:00:35;;;;;;;1.60;1.47;;;;;25.70;100427.00;;;;2078690;28;20225;-52
2022/08/03 03:01:36;;;;;;;1.83;1.23;;;;;25.70;100419.00;;;;2070995;28;20221;-52
2022/08/03 03:02:36;;;;;;;1.50;1.37;;;;;25.70;100422.00;;;;2062881;28;20285;-52
2022/08/03 03:03:36;;;;;;;1.23;1.13;;;;;25.70;100426.00;;;;2064242;28;20211;-52
2022/08/03 03:04:37;;;;;;;1.40;1.30;;;;;25.70;100430.00;;;;2078248;28;20218;-52
2022/08/03 03:05:37;;;;;;;1.53;1.10;;;;;25.70;100428.00;;;;2071032;28;20292;-52
2022/08/03 03:06:38;;;;;;;1.63;1.43;;;;;25.70;100427.00;;;;2070876;28;20211;-52
2022/08/03 03:07:39;;;;;;;1.20;1.10;;;;;25.70;100422.00;;;;2072923;28;20686;-52
2022/08/03 03:08:39;;;;;;;1.20;1.03;;;;;25.70;100498.00;;;;2070671;28;20449;-52
2022/08/03 03:09:39;;;;;;;1.33;1.23;;;;;25.70;100437.00;;;;2070085;28;20711;-52
2022/08/03 03:10:40;;;;;;;3.10;1.50;;;;;25.70;100426.00;;;;2079175;28;20784;-52
2022/08/03 03:11:40;;;;;;;1.20;1.07;;;;;25.70;100418.00;;;;2087380;28;20610;-52
2022/08/03 03:12:40;;;;;;;1.70;1.40;;;;;25.70;100427.00;;;;2078559;28;20224;-52
2022/08/03 03:13:41;;;;;;;1.50;1.23;;;;;25.70;100424.00;;;;2070864;28;20758;-52
2022/08/03 03:14:41;;;;;;;1.10;1.00;;;;;25.70;100428.00;;;;2078906;28;20760;-53
2022/08/03 03:15:42;;;;;;;1.77;1.10;;;;;25.70;100422.00;;;;2087539;28;20217;-52
2022/08/03 03:16:43;;;;;;;1.93;1.40;;;;;25.70;100427.00;;;;2072211;28;20354;-52
2022/08/03 03:17:43;;;;;;;1.40;1.30;;;;;25.70;100439.00;;;;2061941;28;20937;-52
2022/08/03 03:18:44;;;;;;;1.50;1.40;;;;;25.70;100414.00;;;;2070978;28;20234;-52
2022/08/03 03:19:45;;;;;;;1.50;1.10;;;;;25.70;100424.00;;;;2076534;28;20249;-53
2022/08/03 03:20:45;;;;;;;1.50;1.40;;;;;25.70;100388.00;;;;2071025;28;20331;-52
2022/08/03 03:21:45;;;;;;;1.07;0.97;;;;;25.70;100428.00;;;;2078789;28;20659;-52
2022/08/03 03:22:47;;;;;;;1.37;1.27;;;;;25.70;100428.00;;;;2078922;28;20293;-52
2022/08/03 03:23:47;;;;;;;2.10;1.65;;;;;25.70;100429.00;;;;2076646;28;20666;-52
2022/08/03 03:24:48;;;;;;;1.30;1.17;;;;;25.70;100412.00;;;;2062750;28;20215;-52
2022/08/03 03:25:48;;;;;;;1.48;1.17;;;;;25.70;100431.00;;;;2070977;28;20215;-52
2022/08/03 03:26:49;;;;;;;1.40;1.07;;;;;25.70;100418.00;;;;2084696;28;20221;-53
2022/08/03 03:27:49;;;;;;;1.20;1.10;;;;;25.70;100432.00;;;;2077701;28;20245;-53
2022/08/03 03:28:49;;;;;;;1.77;1.33;;;;;25.70;100433.00;;;;2086552;28;20241;-53
2022/08/03 03:29:50;;;;;;;1.50;1.40;;;;;25.70;100430.00;;;;2086987;28;20213;-53
2022/08/03 03:30:50;;;;;;;1.40;1.30;;;;;25.70;100436.00;;;;2087231;28;20248;-53
2022/08/03 03:31:50;;;;;;;1.10;1.00;;;;;25.70;100430.00;;;;2086320;28;20224;-53
2022/08/03 03:32:51;;;;;;;1.17;1.07;;;;;25.70;100427.00;;;;2086617;28;20212;-53
2022/08/03 03:33:51;;;;;;;1.60;1.37;;;;;25.70;100433.00;;;;2083465;28;20228;-53
2022/08/03 03:34:51;;;;;;;1.47;1.30;;;;;25.70;100424.00;;;;2070188;28;20224;-53
2022/08/03 03:35:52;;;;;;;1.83;1.20;;;;;25.70;100430.00;;;;2062325;28;20211;-53
2022/08/03 03:36:52;;;;;;;1.30;1.10;;;;;25.70;100424.00;;;;2078773;28;20241;-53
2022/08/03 03:37:52;;;;;;;1.23;1.13;;;;;25.70;100429.00;;;;2076434;28;20224;-53
2022/08/03 03:38:53;;;;;;;1.30;1.20;;;;;25.70;100428.00;;;;2079331;28;20217;-53
2022/08/03 03:39:53;;;;;;;1.20;1.10;;;;;25.70;100425.00;;;;2084251;28;20213;-53
2022/08/03 03:40:54;;;;;;;1.30;1.10;;;;;25.70;100431.00;;;;2087457;28;20307;-53
2022/08/03 03:41:54;;;;;;;1.30;1.20;;;;;25.70;100432.00;;;;2086744;28;20355;-53
2022/08/03 03:42:54;;;;;;;1.03;0.93;;;;;25.70;100390.00;;;;2086584;28;20241;-53
2022/08/03 03:43:55;;;;;;;1.57;1.30;;;;;25.70;100428.00;;;;2087068;28;20220;-53
2022/08/03 03:44:55;;;;;;;2.30;1.30;;;;;25.70;100430.00;;;;2087004;28;20228;-53
2022/08/03 03:45:56;;;;;;;1.10;1.00;;;;;25.70;100429.00;;;;2087167;28;20300;-53
2022/08/03 03:46:56;;;;;;;1.50;1.40;;;;;25.70;100432.00;;;;2086932;28;20213;-53
2022/08/03 03:47:59;;;;;;;1.40;1.30;;;;;25.60;100434.00;;;;2085911;28;20460;-53
2022/08/03 03:48:59;;;;;;;2.30;1.80;;;;;25.70;100429.00;;;;2078373;28;20213;-58
2022/08/03 03:50:00;;;;;;;1.40;1.00;;;;;25.70;100428.00;;;;2087056;28;20535;-54
2022/08/03 03:51:00;;;;;;;1.50;1.40;;;;;25.60;100431.00;;;;2086763;28;20244;-53
2022/08/03 03:52:01;;;;;;;1.30;1.20;;;;;25.60;100446.00;;;;2086861;28;20514;-53
2022/08/03 03:53:02;;;;;;;1.30;1.20;;;;;25.70;100432.00;;;;2078555;28;20585;-53
2022/08/03 03:54:05;;;;;;;1.40;1.30;;;;;25.70;100435.00;;;;2086739;28;20548;-53
2022/08/03 03:55:06;;;;;;;1.50;1.10;;;;;25.70;100421.00;;;;2086296;28;20463;-53
2022/08/03 03:56:06;;;;;;;1.40;1.23;;;;;25.70;100431.00;;;;2083037;28;20462;-53
2022/08/03 03:57:07;;;;;;;0.97;0.87;;;;;25.70;100429.00;;;;2079516;28;20717;-53
2022/08/03 03:58:08;;;;;;;1.67;1.53;;;;;25.70;100433.00;;;;2078695;28;20852;-53
2022/08/03 03:59:08;;;;;;;1.50;1.40;;;;;25.60;100420.00;;;;2085863;28;20448;-53
2022/08/03 04:00:09;;;;;;;1.27;1.17;;;;;25.70;100420.00;;;;2078788;28;20210;-53
2022/08/03 04:01:11;;;;;;;1.30;1.17;;;;;25.60;100418.00;;;;2079478;28;20217;-53
2022/08/03 04:02:11;;;;;;;2.10;1.63;;;;;25.70;100424.00;;;;2078662;28;20836;-53
2022/08/03 04:03:12;;;;;;;1.33;1.23;;;;;25.60;100421.00;;;;2078508;28;20495;-53
2022/08/03 04:11:12;;;;;;;1.53;1.40;;;;;25.70;100432.00;;;;2085569;28;20447;-53
2022/08/03 04:12:12;;;;;;;1.50;1.20;;;;;25.70;100430.00;;;;2072796;28;20436;-53
2022/08/03 04:13:13;;;;;;;1.20;1.10;;;;;25.70;100425.00;;;;2069261;28;20465;-53
2022/08/03 04:14:31;;;;;;;1.40;1.23;;;;;25.70;100454.00;;;;2083963;28;20330;-53
2022/08/03 04:15:31;;;;;;;1.30;1.20;;;;;25.70;100398.00;;;;2080499;28;20217;-53
2022/08/03 04:16:35;;;;;;;1.47;1.37;;;;;25.70;100431.00;;;;2069778;28;20883;-53
2022/08/03 04:17:35;;;;;;;2.10;1.60;;;;;25.70;100442.00;;;;2068782;28;20229;-53
2022/08/03 04:18:36;;;;;;;1.60;1.13;;;;;25.70;100426.00;;;;2064260;28;20878;-53
2022/08/03 04:19:39;;;;;;;1.40;1.30;;;;;25.70;100433.00;;;;2067437;28;20882;-53
2022/08/03 04:20:39;;;;;;;1.73;1.50;;;;;25.70;100431.00;;;;2069383;28;20694;-53
2022/08/03 04:21:40;;;;;;;1.30;1.20;;;;;25.60;100429.00;;;;2065988;28;20465;-52
2022/08/03 04:22:40;;;;;;;1.00;0.93;;;;;25.60;100428.00;;;;2066301;28;20222;-53
2022/08/03 04:23:43;;;;;;;1.40;1.27;;;;;25.70;100434.00;;;;2077503;28;20713;-54
2022/08/03 04:24:49;;;;;;;1.17;1.07;;;;;25.70;100434.00;;;;2086620;28;20266;-53
2022/08/03 04:25:50;;;;;;;1.50;1.10;;;;;25.70;100404.00;;;;2085693;28;20472;-54
2022/08/03 04:26:50;;;;;;;1.40;1.20;;;;;25.70;100434.00;;;;2085406;28;20463;-52
2022/08/03 04:27:54;;;;;;;1.13;0.97;;;;;25.70;100432.00;;;;2085142;28;20243;-53
2022/08/03 04:28:54;;;;;;;1.40;1.30;;;;;25.70;100432.00;;;;2073540;28;20213;-53
2022/08/03 04:29:55;;;;;;;1.37;1.27;;;;;25.70;100435.00;;;;2070458;28;20489;-52
2022/08/03 04:30:55;;;;;;;1.43;1.30;;;;;25.70;100430.00;;;;2078533;28;20228;-53
2022/08/03 04:31:56;;;;;;;1.70;1.40;;;;;25.70;100433.00;;;;2078047;28;20498;-53
2022/08/03 04:32:56;;;;;;;1.37;1.27;;;;;25.70;100431.00;;;;2070237;28;20214;-53
2022/08/03 04:33:57;;;;;;;1.50;1.23;;;;;25.70;100433.00;;;;2078305;28;20209;-52
2022/08/03 04:34:57;;;;;;;1.60;1.50;;;;;25.70;100426.00;;;;2061852;28;20660;-52
2022/08/03 04:35:58;;;;;;;1.83;1.10;;;;;25.70;100431.00;;;;2078461;28;20708;-52
2022/08/03 04:37:00;;;;;;;1.20;1.07;;;;;25.70;100435.00;;;;2086407;28;20275;-53
2022/08/03 04:38:02;;;;;;;1.20;1.10;;;;;25.70;100436.00;;;;2067663;28;20476;-53
2022/08/03 04:39:04;;;;;;;1.37;1.23;;;;;25.70;100436.00;;;;2085959;28;20466;-53
2022/08/03 04:40:14;;;;;;;1.80;1.20;;;;;25.70;100433.00;;;;2073994;28;20468;-53
2022/08/03 04:41:14;;;;;;;1.53;1.10;;;;;25.60;100424.00;;;;2070773;28;20619;-53
2022/08/03 04:42:15;;;;;;;1.83;1.30;;;;;25.70;100432.00;;;;2069571;28;20958;-53
2022/08/03 04:43:15;;;;;;;1.23;1.10;;;;;25.70;100430.00;;;;2085832;28;20308;-53
2022/08/03 04:44:16;;;;;;;1.43;1.20;;;;;25.70;100429.00;;;;2086268;28;20234;-52
2022/08/03 04:45:16;;;;;;;1.50;1.40;;;;;25.70;100430.00;;;;2086268;28;20591;-53
2022/08/03 04:46:16;;;;;;;1.40;1.10;;;;;25.60;100435.00;;;;2086166;28;20608;-53
2022/08/03 04:47:17;;;;;;;1.20;1.10;;;;;25.70;100435.00;;;;2077401;28;20236;-53
2022/08/03 04:48:18;;;;;;;1.40;1.30;;;;;25.70;100405.00;;;;2085857;28;20213;-53
2022/08/03 04:49:19;;;;;;;2.30;1.50;;;;;25.70;100440.00;;;;2086309;28;20286;-53
2022/08/03 04:50:20;;;;;;;1.27;1.17;;;;;25.60;100436.00;;;;2086151;28;20530;-53
2022/08/03 04:51:20;;;;;;;1.10;1.00;;;;;25.70;100244.00;;;;2086298;28;20221;-53
2022/08/03 04:52:21;;;;;;;2.07;1.63;;;;;25.70;100407.00;;;;2086356;28;20455;-53
2022/08/03 04:53:21;;;;;;;1.40;1.30;;;;;25.70;100439.00;;;;2078045;28;20283;-53
2022/08/03 04:54:21;;;;;;;1.50;1.20;;;;;25.70;100444.00;;;;2077828;28;20717;-53
2022/08/03 04:55:26;;;;;;;1.00;0.90;;;;;25.70;100440.00;;;;2086954;28;20221;-53
2022/08/03 04:56:27;;;;;;;1.23;1.13;;;;;25.70;100443.00;;;;2087069;28;20760;-52
2022/08/03 04:57:27;;;;;;;1.30;1.20;;;;;25.70;100437.00;;;;2084426;28;20455;-53
2022/08/03 04:58:27;;;;;;;2.00;1.30;;;;;25.70;100450.00;;;;2086542;28;20569;-53
2022/08/03 04:59:27;;;;;;;1.40;1.30;;;;;25.70;100433.00;;;;2085820;28;20676;-53
2022/08/03 05:00:28;;;;;;;1.73;1.63;;;;;25.70;100440.00;;;;2086381;28;20224;-52
2022/08/03 05:01:28;;;;;;;1.20;1.10;;;;;25.70;100432.00;;;;2087054;28;20221;-53
2022/08/03 05:02:29;;;;;;;1.40;1.30;;;;;25.70;100440.00;;;;2086854;28;20228;-52
2022/08/03 05:03:30;;;;;;;2.33;1.30;;;;;25.70;100439.00;;;;2086772;28;20239;-53
2022/08/03 05:04:31;;;;;;;1.10;1.00;;;;;25.70;100437.00;;;;2086694;28;20968;-53
2022/08/03 05:05:31;;;;;;;1.23;1.10;;;;;25.70;100433.00;;;;2087178;28;20879;-53
2022/08/03 05:06:31;;;;;;;1.60;1.50;;;;;25.70;100438.00;;;;2087067;28;20687;-53
2022/08/03 05:07:32;;;;;;;1.10;1.00;;;;;25.70;100455.00;;;;2085867;28;20216;-53
2022/08/03 05:08:32;;;;;;;1.50;1.40;;;;;25.70;100443.00;;;;2086764;28;20681;-53
2022/08/03 05:09:33;;;;;;;1.47;1.37;;;;;25.70;100445.00;;;;2086960;28;20228;-53
2022/08/03 05:10:34;;;;;;;1.25;1.15;;;;;25.70;100440.00;;;;2087057;28;20831;-53
2022/08/03 05:11:34;;;;;;;1.63;1.10;;;;;25.70;100447.00;;;;2086593;28;20217;-52
2022/08/03 05:12:37;;;;;;;1.37;1.20;;;;;25.70;100445.00;;;;2086229;28;20221;-53
2022/08/03 05:13:38;;;;;;;1.40;1.30;;;;;25.70;100470.00;;;;2083869;28;20216;-53